createdAt,value
2023-02-15T00:01:57.273Z,58.38
2023-02-15T00:03:59.328Z,58.30
2023-02-15T00:06:02.202Z,58.17
2023-02-15T00:08:04.570Z,58.16
2023-02-15T00:10:07.727Z,58.50
2023-02-15T00:12:11.373Z,58.21
2023-02-15T00:14:24.798Z,58.74
2023-02-15T00:16:26.987Z,58.67
2023-02-15T00:18:29.167Z,58.26
2023-02-15T00:20:31.368Z,58.31
2023-02-15T00:22:33.399Z,58.39
2023-02-15T00:24:35.554Z,58.52
2023-02-15T00:26:40.368Z,58.61
2023-02-15T00:28:42.872Z,58.64
2023-02-15T00:30:44.949Z,58.44
2023-02-15T00:32:49.292Z,58.80
2023-02-15T00:34:52.823Z,58.58
2023-02-15T00:36:55.408Z,58.73
2023-02-15T00:38:57.612Z,58.56
2023-02-15T00:41:01.512Z,58.54
2023-02-15T00:43:05.860Z,58.74
2023-02-15T00:45:08.300Z,58.51
2023-02-15T00:47:10.594Z,58.60
2023-02-15T00:49:12.929Z,58.65
2023-02-15T00:51:17.862Z,59.01
2023-02-15T00:53:20.352Z,58.68
2023-02-15T00:55:22.731Z,58.92
2023-02-15T00:57:25.155Z,58.86
2023-02-15T00:59:27.313Z,58.42
2023-02-15T01:01:29.445Z,58.67
2023-02-15T01:03:31.564Z,58.87
2023-02-15T01:05:33.881Z,58.81
2023-02-15T01:07:38.969Z,58.69
2023-02-15T01:09:41.057Z,58.72
2023-02-15T01:11:43.211Z,58.75
2023-02-15T01:13:45.223Z,58.93
2023-02-15T01:15:53.702Z,58.69
2023-02-15T01:17:56.010Z,58.69
2023-02-15T01:19:57.942Z,58.51
2023-02-15T01:21:59.829Z,58.79
2023-02-15T01:24:02.889Z,58.76
2023-02-15T01:26:05.112Z,58.61
2023-02-15T01:28:07.167Z,58.84
2023-02-15T01:30:10.161Z,59.32
2023-02-15T01:32:12.804Z,58.90
2023-02-15T01:34:17.799Z,59.68
2023-02-15T01:36:19.910Z,59.96
2023-02-15T01:38:22.349Z,59.76
2023-02-15T01:40:25.441Z,59.88
2023-02-15T01:42:29.245Z,59.41
2023-02-15T01:44:53.606Z,59.75
2023-02-15T01:46:55.529Z,59.52
2023-02-15T01:49:17.923Z,59.85
2023-02-15T01:51:24.761Z,59.22
2023-02-15T01:53:45.926Z,59.60
2023-02-15T01:56:04.191Z,59.97
2023-02-15T01:58:07.288Z,60.04
2023-02-15T02:00:09.959Z,59.70
2023-02-15T02:02:17.856Z,59.53
2023-02-15T02:04:40.191Z,59.83
2023-02-15T02:06:43.087Z,59.55
2023-02-15T02:08:45.505Z,59.25
2023-02-15T02:10:47.810Z,59.42
2023-02-15T02:12:54.416Z,59.49
2023-02-15T02:14:57.347Z,59.21
2023-02-15T02:17:18.771Z,59.47
2023-02-15T02:19:39.125Z,59.21
2023-02-15T02:21:59.456Z,59.29
2023-02-15T02:24:31.783Z,59.83
2023-02-15T02:27:01.906Z,59.63
2023-02-15T02:29:04.950Z,59.39
2023-02-15T02:31:44.573Z,60.11
2023-02-15T02:34:09.119Z,59.52
2023-02-15T02:36:25.267Z,59.65
2023-02-15T02:38:54.972Z,59.68
2023-02-15T02:41:21.809Z,60.14
2023-02-15T02:43:41.616Z,59.45
2023-02-15T02:46:15.976Z,59.58
2023-02-15T02:48:23.924Z,58.93
2023-02-15T02:50:31.169Z,59.26
2023-02-15T02:52:48.755Z,59.49
2023-02-15T02:54:52.167Z,59.31
2023-02-15T02:56:56.827Z,58.75
2023-02-15T02:59:02.871Z,58.83
2023-02-15T03:01:17.011Z,58.70
2023-02-15T03:03:56.069Z,58.80
2023-02-15T03:06:03.304Z,58.63
2023-02-15T03:08:10.976Z,58.54
2023-02-15T03:10:14.844Z,58.28
2023-02-15T03:12:23.800Z,58.45
2023-02-15T03:14:27.387Z,58.09
2023-02-15T03:16:29.972Z,57.93
2023-02-15T03:18:37.997Z,58.22
2023-02-15T03:20:40.456Z,58.24
2023-02-15T03:23:05.492Z,58.33
2023-02-15T03:25:16.022Z,57.72
2023-02-15T03:27:23.875Z,57.97
2023-02-15T03:29:31.373Z,57.75
2023-02-15T03:31:39.387Z,58.13
2023-02-15T03:33:51.006Z,57.76
2023-02-15T03:36:10.491Z,57.75
2023-02-15T03:38:18.584Z,57.67
2023-02-15T03:40:45.948Z,57.51
2023-02-15T03:42:53.818Z,57.47
2023-02-15T03:45:12.873Z,57.97
2023-02-15T03:47:20.662Z,57.32
2023-02-15T03:49:29.872Z,57.87
2023-02-15T03:51:36.183Z,57.35
2023-02-15T03:53:39.857Z,57.70
2023-02-15T03:55:44.963Z,57.64
2023-02-15T03:58:06.277Z,57.44
2023-02-15T04:00:46.698Z,57.62
2023-02-15T04:03:07.228Z,57.55
2023-02-15T04:05:09.326Z,57.60
2023-02-15T04:07:11.455Z,58.04
2023-02-15T04:09:32.561Z,58.00
2023-02-15T04:11:34.887Z,57.52
2023-02-15T04:13:36.771Z,57.56
2023-02-15T04:15:57.390Z,57.58
2023-02-15T04:17:59.619Z,57.69
2023-02-15T04:20:20.536Z,57.76
2023-02-15T04:22:41.424Z,57.51
2023-02-15T04:25:02.193Z,57.69
2023-02-15T04:27:06.162Z,57.66
2023-02-15T04:29:08.421Z,57.87
2023-02-15T04:31:10.512Z,58.15
2023-02-15T04:33:12.821Z,57.55
2023-02-15T04:35:15.662Z,57.90
2023-02-15T04:37:17.639Z,58.06
2023-02-15T04:39:20.199Z,57.53
2023-02-15T04:41:22.348Z,57.73
2023-02-15T04:43:24.664Z,58.09
2023-02-15T04:45:28.397Z,57.73
2023-02-15T04:47:33.744Z,58.29
2023-02-15T04:49:35.909Z,58.03
2023-02-15T04:51:37.988Z,58.21
2023-02-15T04:53:40.159Z,57.87
2023-02-15T04:55:43.591Z,57.98
2023-02-15T04:57:47.024Z,57.99
2023-02-15T04:59:48.961Z,57.86
2023-02-15T05:01:50.994Z,58.42
2023-02-15T05:03:53.156Z,57.76
2023-02-15T05:05:56.300Z,57.99
2023-02-15T05:07:58.326Z,57.82
2023-02-15T05:10:00.435Z,57.99
2023-02-15T05:12:02.403Z,57.93
2023-02-15T05:14:05.136Z,57.90
2023-02-15T05:16:07.208Z,57.85
2023-02-15T05:18:09.277Z,57.72
2023-02-15T05:20:11.559Z,57.83
2023-02-15T05:22:13.766Z,57.81
2023-02-15T05:24:34.891Z,57.93
2023-02-15T05:26:55.762Z,57.98
2023-02-15T05:28:57.735Z,57.97
2023-02-15T05:31:17.843Z,58.27
2023-02-15T05:33:21.007Z,57.93
2023-02-15T05:35:23.217Z,58.07
2023-02-15T05:37:25.342Z,58.17
2023-02-15T05:39:27.434Z,58.14
2023-02-15T05:41:31.357Z,57.80
2023-02-15T05:43:33.628Z,58.20
2023-02-15T05:45:35.792Z,58.32
2023-02-15T05:47:37.774Z,58.24
2023-02-15T05:49:39.789Z,58.25
2023-02-15T05:51:41.893Z,58.58
2023-02-15T05:53:44.239Z,58.47
2023-02-15T05:55:46.317Z,58.36
2023-02-15T05:57:49.462Z,58.22
2023-02-15T05:59:51.468Z,58.48
2023-02-15T06:01:53.518Z,58.71
2023-02-15T06:03:56.761Z,58.81
2023-02-15T06:05:59.018Z,58.69
2023-02-15T06:08:05.957Z,58.68
2023-02-15T06:10:08.494Z,59.14
2023-02-15T06:12:10.521Z,59.16
2023-02-15T06:14:12.754Z,59.47
2023-02-15T06:16:16.990Z,59.68
2023-02-15T06:18:19.324Z,59.59
2023-02-15T06:20:21.334Z,59.83
2023-02-15T06:22:23.842Z,60.32
2023-02-15T06:24:25.879Z,60.22
2023-02-15T06:26:27.840Z,59.59
2023-02-15T06:28:29.975Z,59.55
2023-02-15T06:30:32.728Z,59.82
2023-02-15T06:32:35.149Z,59.77
2023-02-15T06:34:37.278Z,60.02
2023-02-15T06:36:39.384Z,60.23
2023-02-15T06:38:41.299Z,59.97
2023-02-15T06:40:43.329Z,60.43
2023-02-15T06:42:45.974Z,60.09
2023-02-15T06:44:47.869Z,60.33
2023-02-15T06:46:49.934Z,60.44
2023-02-15T06:48:51.821Z,60.18
2023-02-15T06:50:53.891Z,60.84
2023-02-15T06:52:59.951Z,60.03
2023-02-15T06:55:04.947Z,60.35
2023-02-15T06:57:07.118Z,59.97
2023-02-15T06:59:09.275Z,59.73
2023-02-15T07:01:11.418Z,59.83
2023-02-15T07:03:16.060Z,59.63
2023-02-15T07:05:18.149Z,59.67
2023-02-15T07:07:20.288Z,59.29
2023-02-15T07:09:23.009Z,59.42
2023-02-15T07:11:46.175Z,59.84
2023-02-15T07:13:48.957Z,59.41
2023-02-15T07:15:51.495Z,59.57
2023-02-15T07:17:53.524Z,59.20
2023-02-15T07:19:56.266Z,58.92
2023-02-15T07:21:58.297Z,58.84
2023-02-15T07:24:00.281Z,59.05
2023-02-15T07:26:03.361Z,58.77
2023-02-15T07:28:05.966Z,58.53
2023-02-15T07:30:13.506Z,58.64
2023-02-15T07:32:15.957Z,58.26
2023-02-15T07:34:18.317Z,58.31
2023-02-15T07:36:20.391Z,58.80
2023-02-15T07:38:22.814Z,58.65
2023-02-15T07:40:25.684Z,58.51
2023-02-15T07:42:27.795Z,58.45
2023-02-15T07:44:29.931Z,58.16
2023-02-15T07:46:32.101Z,58.18
2023-02-15T07:48:35.811Z,57.87
2023-02-15T07:50:37.921Z,57.89
2023-02-15T07:52:40.364Z,57.54
2023-02-15T07:54:42.511Z,57.93
2023-02-15T07:56:44.724Z,57.83
2023-02-15T07:58:52.883Z,57.66
2023-02-15T08:01:01.838Z,57.74
2023-02-15T08:03:16.126Z,57.75
2023-02-15T08:05:19.364Z,57.20
2023-02-15T08:07:21.383Z,57.66
2023-02-15T08:09:23.732Z,57.73
2023-02-15T08:11:37.189Z,57.21
2023-02-15T08:13:55.750Z,57.07
2023-02-15T08:15:57.886Z,57.08
2023-02-15T08:18:00.019Z,57.39
2023-02-15T08:20:02.079Z,56.61
2023-02-15T08:22:07.333Z,56.50
2023-02-15T08:24:11.074Z,57.07
2023-02-15T08:26:13.557Z,56.63
2023-02-15T08:28:16.158Z,57.07
2023-02-15T08:30:18.700Z,56.89
2023-02-15T08:32:20.645Z,57.04
2023-02-15T08:34:22.790Z,56.59
2023-02-15T08:36:28.429Z,56.84
2023-02-15T08:38:33.233Z,56.70
2023-02-15T08:40:36.131Z,57.08
2023-02-15T08:42:38.180Z,56.71
2023-02-15T08:44:40.332Z,56.84
2023-02-15T08:46:44.652Z,56.67
2023-02-15T08:48:47.360Z,56.06
2023-02-15T08:50:51.850Z,55.95
2023-02-15T08:52:53.962Z,56.59
2023-02-15T08:54:56.603Z,56.93
2023-02-15T08:56:58.694Z,56.55
2023-02-15T08:59:01.455Z,56.75
2023-02-15T09:01:10.555Z,57.26
2023-02-15T09:03:12.527Z,57.24
2023-02-15T09:05:14.822Z,57.41
2023-02-15T09:07:19.185Z,57.05
2023-02-15T09:09:23.530Z,57.31
2023-02-15T09:11:28.885Z,57.51
2023-02-15T09:13:30.759Z,57.06
2023-02-15T09:15:32.872Z,57.51
2023-02-15T09:17:34.950Z,56.81
2023-02-15T09:19:37.166Z,56.04
2023-02-15T09:21:39.679Z,55.36
2023-02-15T09:23:42.911Z,55.73
2023-02-15T09:25:45.033Z,55.40
2023-02-15T09:27:47.761Z,56.23
2023-02-15T09:29:49.913Z,56.21
2023-02-15T09:31:53.512Z,56.68
2023-02-15T09:33:56.512Z,56.19
2023-02-15T09:35:58.632Z,56.04
2023-02-15T09:38:00.791Z,56.08
2023-02-15T09:40:02.920Z,55.75
2023-02-15T09:42:35.007Z,55.18
2023-02-15T09:44:58.432Z,55.22
2023-02-15T09:47:32.158Z,55.74
2023-02-15T09:50:06.927Z,55.17
2023-02-15T09:52:18.754Z,55.92
2023-02-15T09:54:42.184Z,56.22
2023-02-15T09:57:00.638Z,56.44
2023-02-15T09:59:08.629Z,56.40
2023-02-15T10:01:36.380Z,55.98
2023-02-15T10:04:16.342Z,54.77
2023-02-15T10:06:43.330Z,56.02
2023-02-15T10:09:35.640Z,55.82
2023-02-15T10:12:06.952Z,55.88
2023-02-15T10:14:16.927Z,55.52
2023-02-15T10:16:42.091Z,55.26
2023-02-15T10:19:02.597Z,54.03
2023-02-15T10:21:23.204Z,54.87
2023-02-15T10:24:02.731Z,55.19
2023-02-15T10:26:35.849Z,55.24
2023-02-15T10:28:43.719Z,54.92
2023-02-15T10:30:52.002Z,54.70
2023-02-15T10:33:02.151Z,55.17
2023-02-15T10:35:14.712Z,54.80
2023-02-15T10:37:54.694Z,54.57
2023-02-15T10:40:19.377Z,54.02
2023-02-15T10:42:48.902Z,53.63
2023-02-15T10:45:10.009Z,53.00
2023-02-15T10:47:30.669Z,53.70
2023-02-15T10:49:41.992Z,51.43
2023-02-15T10:52:11.242Z,52.40
2023-02-15T10:54:44.413Z,50.85
2023-02-15T10:57:17.335Z,51.75
2023-02-15T10:59:54.665Z,50.89
2023-02-15T11:02:14.291Z,51.64
2023-02-15T11:04:41.368Z,52.17
2023-02-15T11:06:52.348Z,52.66
2023-02-15T11:09:03.266Z,52.15
2023-02-15T11:11:09.691Z,51.57
2023-02-15T11:13:18.475Z,52.13
2023-02-15T11:15:38.416Z,52.25
2023-02-15T11:17:51.820Z,51.42
2023-02-15T11:20:09.513Z,49.94
2023-02-15T11:22:12.793Z,52.40
2023-02-15T11:24:24.239Z,51.28
2023-02-15T11:26:36.173Z,50.39
2023-02-15T11:28:49.358Z,50.18
2023-02-15T11:30:56.291Z,51.37
2023-02-15T11:33:03.322Z,50.95
2023-02-15T11:35:53.523Z,51.07
2023-02-15T11:38:04.971Z,51.64
2023-02-15T11:40:20.381Z,51.98
2023-02-15T11:42:26.881Z,51.71
2023-02-15T11:44:38.460Z,52.26
2023-02-15T11:46:40.565Z,51.95
2023-02-15T11:48:43.566Z,51.97
2023-02-15T11:50:52.309Z,51.42
2023-02-15T11:53:00.292Z,50.48
2023-02-15T11:55:02.829Z,51.05
2023-02-15T11:57:34.932Z,52.13
2023-02-15T11:59:40.053Z,51.34
2023-02-15T12:01:44.734Z,51.23
2023-02-15T12:03:49.798Z,51.42
2023-02-15T12:05:58.375Z,51.79
2023-02-15T12:08:09.594Z,50.95
2023-02-15T12:10:15.207Z,51.22
2023-02-15T12:12:29.733Z,50.39
2023-02-15T12:14:49.876Z,50.98
2023-02-15T12:16:54.923Z,50.99
2023-02-15T12:19:00.095Z,50.62
2023-02-15T12:21:11.503Z,50.42
2023-02-15T12:23:16.670Z,50.37
2023-02-15T12:25:39.091Z,50.20
2023-02-15T12:27:44.287Z,50.91
2023-02-15T12:29:52.100Z,50.86
2023-02-15T12:31:55.088Z,51.14
2023-02-15T12:34:03.005Z,50.37
2023-02-15T12:36:12.653Z,49.88
2023-02-15T12:38:14.713Z,50.29
2023-02-15T12:40:23.401Z,50.46
2023-02-15T12:42:27.038Z,50.77
2023-02-15T12:44:38.297Z,50.12
2023-02-15T12:46:40.921Z,50.55
2023-02-15T12:48:42.865Z,50.78
2023-02-15T12:50:55.455Z,49.42
2023-02-15T12:53:21.391Z,49.98
2023-02-15T12:55:31.898Z,49.82
2023-02-15T12:57:35.570Z,50.55
2023-02-15T12:59:38.858Z,50.21
2023-02-15T13:01:41.500Z,50.48
2023-02-15T13:04:07.924Z,49.15
2023-02-15T13:06:09.901Z,49.87
2023-02-15T13:08:16.571Z,49.60
2023-02-15T13:10:32.272Z,48.28
2023-02-15T13:12:35.271Z,49.01
2023-02-15T13:14:46.349Z,48.25
2023-02-15T13:16:52.146Z,49.13
2023-02-15T13:18:54.616Z,48.97
2023-02-15T13:20:57.805Z,49.43
2023-02-15T13:23:08.226Z,49.40
2023-02-15T13:25:43.834Z,49.62
2023-02-15T13:27:49.603Z,49.02
2023-02-15T13:29:59.366Z,48.85
2023-02-15T13:32:26.360Z,49.27
2023-02-15T13:34:40.011Z,47.21
2023-02-15T13:37:00.638Z,47.25
2023-02-15T13:39:28.287Z,46.18
2023-02-15T13:42:05.280Z,46.61
2023-02-15T13:44:20.172Z,46.03
2023-02-15T13:46:25.217Z,46.88
2023-02-15T13:48:53.203Z,47.31
2023-02-15T13:51:16.417Z,45.89
2023-02-15T13:53:36.333Z,47.78
2023-02-15T13:55:45.196Z,48.21
2023-02-15T13:58:05.871Z,47.99
2023-02-15T14:00:19.800Z,46.68
2023-02-15T14:02:46.198Z,46.98
2023-02-15T14:04:54.257Z,46.17
2023-02-15T14:06:59.214Z,46.38
2023-02-15T14:09:21.701Z,45.70
2023-02-15T14:11:23.630Z,46.71
2023-02-15T14:13:49.799Z,47.16
2023-02-15T14:16:39.714Z,46.68
2023-02-15T14:18:50.080Z,47.34
2023-02-15T14:21:16.482Z,47.63
2023-02-15T14:23:24.991Z,47.25
2023-02-15T14:25:38.978Z,47.15
2023-02-15T14:28:02.198Z,46.81
2023-02-15T14:30:22.868Z,46.22
2023-02-15T14:32:36.730Z,46.36
2023-02-15T14:34:54.041Z,47.56
2023-02-15T14:36:57.275Z,47.25
2023-02-15T14:39:02.218Z,46.77
2023-02-15T14:41:28.770Z,46.87
2023-02-15T14:43:36.768Z,47.54
2023-02-15T14:45:56.102Z,46.85
2023-02-15T14:48:18.730Z,47.10
2023-02-15T14:50:37.687Z,46.35
2023-02-15T14:53:23.624Z,47.17
2023-02-15T14:56:08.473Z,46.67
2023-02-15T14:58:14.970Z,47.12
2023-02-15T15:00:34.902Z,46.26
2023-02-15T15:02:48.427Z,47.15
2023-02-15T15:05:03.398Z,46.48
2023-02-15T15:07:18.855Z,47.26
2023-02-15T15:09:26.783Z,46.34
2023-02-15T15:11:42.538Z,47.38
2023-02-15T15:13:59.837Z,47.46
2023-02-15T15:16:29.958Z,47.30
2023-02-15T15:18:50.456Z,47.51
2023-02-15T15:20:52.730Z,47.77
2023-02-15T15:23:17.388Z,47.36
2023-02-15T15:25:56.972Z,47.26
2023-02-15T15:27:59.544Z,47.84
2023-02-15T15:30:02.544Z,48.21
2023-02-15T15:32:11.464Z,48.07
2023-02-15T15:34:22.988Z,48.23
2023-02-15T15:36:49.090Z,48.48
2023-02-15T15:39:14.921Z,47.78
2023-02-15T15:41:16.895Z,48.01
2023-02-15T15:43:37.298Z,47.86
2023-02-15T15:45:48.216Z,48.42
2023-02-15T15:48:05.224Z,48.11
2023-02-15T15:50:20.731Z,48.47
2023-02-15T15:52:24.106Z,48.34
2023-02-15T15:54:28.874Z,48.54
2023-02-15T15:56:35.016Z,48.78
2023-02-15T15:58:38.295Z,48.60
2023-02-15T16:00:52.964Z,48.47
2023-02-15T16:02:56.675Z,48.92
2023-02-15T16:05:09.205Z,48.46
2023-02-15T16:07:29.648Z,48.91
2023-02-15T16:09:31.610Z,48.80
2023-02-15T16:11:33.844Z,48.78
2023-02-15T16:13:36.083Z,49.00
2023-02-15T16:15:53.508Z,49.25
2023-02-15T16:17:58.356Z,48.88
2023-02-15T16:20:06.716Z,49.23
2023-02-15T16:22:19.078Z,48.92
2023-02-15T16:24:55.603Z,49.18
2023-02-15T16:27:00.253Z,49.61
2023-02-15T16:29:02.626Z,49.31
2023-02-15T16:31:16.305Z,49.37
2023-02-15T16:33:19.123Z,49.01
2023-02-15T16:35:23.741Z,49.28
2023-02-15T16:37:28.520Z,49.30
2023-02-15T16:39:34.064Z,49.31
2023-02-15T16:41:36.819Z,49.15
2023-02-15T16:43:41.684Z,49.42
2023-02-15T16:45:44.507Z,49.23
2023-02-15T16:47:48.824Z,49.25
2023-02-15T16:49:53.773Z,48.87
2023-02-15T16:52:02.221Z,49.22
2023-02-15T16:54:16.533Z,48.84
2023-02-15T16:56:25.189Z,49.39
2023-02-15T16:58:31.684Z,49.17
2023-02-15T17:00:37.892Z,49.02
2023-02-15T17:02:55.639Z,49.00
2023-02-15T17:05:07.643Z,49.03
2023-02-15T17:07:20.104Z,49.40
2023-02-15T17:09:26.372Z,49.22
2023-02-15T17:11:37.801Z,49.03
2023-02-15T17:13:41.004Z,49.63
2023-02-15T17:15:44.127Z,49.28
2023-02-15T17:17:47.522Z,49.08
2023-02-15T17:19:53.633Z,49.48
2023-02-15T17:21:59.888Z,49.55
2023-02-15T17:24:05.276Z,49.59
2023-02-15T17:26:20.068Z,49.54
2023-02-15T17:28:25.463Z,49.48
2023-02-15T17:30:33.432Z,49.69
2023-02-15T17:32:37.430Z,49.54
2023-02-15T17:34:44.012Z,49.70
2023-02-15T17:37:00.577Z,49.88
2023-02-15T17:39:07.615Z,49.58
2023-02-15T17:41:10.102Z,49.46
2023-02-15T17:43:12.337Z,49.42
2023-02-15T17:45:15.516Z,49.20
2023-02-15T17:47:23.280Z,49.44
2023-02-15T17:49:38.590Z,49.67
2023-02-15T17:51:44.215Z,49.35
2023-02-15T17:54:07.681Z,49.57
2023-02-15T17:56:12.931Z,49.36
2023-02-15T17:58:17.223Z,49.75
2023-02-15T18:00:38.533Z,49.63
2023-02-15T18:02:59.728Z,49.34
2023-02-15T18:05:20.351Z,49.27
2023-02-15T18:07:41.168Z,49.29
2023-02-15T18:10:02.395Z,49.63
2023-02-15T18:12:28.034Z,49.91
2023-02-15T18:14:32.003Z,49.44
2023-02-15T18:16:38.047Z,49.55
2023-02-15T18:18:40.806Z,49.96
2023-02-15T18:20:45.024Z,49.53
2023-02-15T18:22:48.739Z,49.60
2023-02-15T18:24:52.490Z,49.69
2023-02-15T18:26:55.761Z,50.04
2023-02-15T18:29:08.070Z,50.02
2023-02-15T18:31:12.015Z,49.97
2023-02-15T18:33:47.903Z,50.43
2023-02-15T18:35:52.017Z,50.00
2023-02-15T18:37:54.741Z,50.12
2023-02-15T18:39:57.306Z,50.06
2023-02-15T18:42:01.535Z,50.10
2023-02-15T18:44:03.769Z,50.43
2023-02-15T18:46:06.138Z,49.95
2023-02-15T18:48:10.962Z,50.13
2023-02-15T18:50:14.271Z,50.12
2023-02-15T18:52:22.921Z,50.38
2023-02-15T18:54:26.331Z,50.02
2023-02-15T18:56:31.744Z,50.28
2023-02-15T18:58:34.339Z,50.23
2023-02-15T19:00:37.304Z,50.12
2023-02-15T19:02:40.714Z,50.11
2023-02-15T19:04:43.676Z,50.14
2023-02-15T19:06:48.628Z,50.70
2023-02-15T19:08:53.319Z,50.49
2023-02-15T19:10:55.612Z,50.30
2023-02-15T19:12:58.226Z,50.58
2023-02-15T19:15:01.304Z,50.81
2023-02-15T19:17:03.314Z,50.84
2023-02-15T19:19:07.274Z,51.21
2023-02-15T19:21:16.012Z,51.57
2023-02-15T19:23:21.524Z,51.59
2023-02-15T19:25:30.446Z,51.90
2023-02-15T19:27:35.296Z,51.63
2023-02-15T19:29:37.525Z,51.12
2023-02-15T19:31:39.594Z,51.57
2023-02-15T19:33:41.853Z,51.47
2023-02-15T19:35:47.199Z,50.98
2023-02-15T19:37:57.577Z,51.28
2023-02-15T19:40:03.965Z,51.31
2023-02-15T19:42:19.299Z,51.44
2023-02-15T19:44:21.847Z,51.18
2023-02-15T19:46:24.387Z,51.27
2023-02-15T19:48:26.697Z,50.93
2023-02-15T19:50:31.525Z,51.25
2023-02-15T19:52:33.735Z,51.20
2023-02-15T19:54:36.324Z,50.95
2023-02-15T19:56:38.445Z,51.20
2023-02-15T19:58:44.215Z,51.09
2023-02-15T20:00:48.850Z,51.47
2023-02-15T20:02:52.116Z,51.58
2023-02-15T20:04:54.429Z,51.64
2023-02-15T20:06:59.539Z,51.35
2023-02-15T20:09:04.204Z,51.54
2023-02-15T20:11:11.153Z,51.52
2023-02-15T20:13:17.927Z,51.45
2023-02-15T20:15:23.263Z,51.14
2023-02-15T20:17:25.342Z,51.42
2023-02-15T20:19:27.698Z,50.99
2023-02-15T20:21:30.105Z,51.55
2023-02-15T20:23:35.942Z,51.59
2023-02-15T20:25:38.231Z,51.46
2023-02-15T20:27:42.504Z,51.48
2023-02-15T20:29:44.901Z,51.86
2023-02-15T20:31:47.283Z,51.70
2023-02-15T20:33:49.885Z,52.06
2023-02-15T20:35:52.552Z,51.95
2023-02-15T20:37:57.312Z,51.89
2023-02-15T20:39:59.591Z,52.46
2023-02-15T20:42:02.219Z,52.79
2023-02-15T20:44:18.111Z,52.97
2023-02-15T20:46:20.452Z,52.17
2023-02-15T20:48:22.962Z,52.47
2023-02-15T20:50:29.122Z,52.27
2023-02-15T20:52:31.984Z,52.44
2023-02-15T20:54:36.222Z,52.74
2023-02-15T20:56:38.583Z,52.66
2023-02-15T20:58:42.055Z,52.52
2023-02-15T21:00:44.137Z,53.02
2023-02-15T21:02:51.528Z,53.34
2023-02-15T21:04:55.757Z,53.65
2023-02-15T21:06:58.043Z,53.92
2023-02-15T21:09:02.117Z,54.03
2023-02-15T21:11:04.532Z,54.16
2023-02-15T21:13:15.768Z,54.01
2023-02-15T21:15:41.948Z,54.43
2023-02-15T21:17:44.234Z,54.41
2023-02-15T21:19:46.595Z,54.00
2023-02-15T21:21:53.961Z,53.93
2023-02-15T21:23:56.092Z,54.64
2023-02-15T21:25:58.381Z,55.41
2023-02-15T21:28:00.424Z,54.81
2023-02-15T21:30:02.713Z,55.09
2023-02-15T21:32:05.056Z,54.55
2023-02-15T21:34:09.451Z,54.90
2023-02-15T21:36:24.076Z,54.87
2023-02-15T21:38:31.356Z,54.78
2023-02-15T21:40:33.977Z,55.31
2023-02-15T21:42:54.933Z,55.25
2023-02-15T21:45:15.804Z,54.79
2023-02-15T21:47:40.549Z,54.94
2023-02-15T21:49:42.399Z,54.43
2023-02-15T21:52:13.547Z,54.52
2023-02-15T21:54:18.900Z,54.72
2023-02-15T21:56:22.275Z,54.35
2023-02-15T21:58:26.850Z,54.34
2023-02-15T22:00:29.976Z,54.38
2023-02-15T22:02:32.372Z,54.38
2023-02-15T22:04:34.357Z,54.73
2023-02-15T22:06:36.462Z,54.29
2023-02-15T22:08:38.550Z,54.32
2023-02-15T22:10:41.783Z,54.25
2023-02-15T22:12:44.570Z,53.84
2023-02-15T22:14:52.537Z,54.12
2023-02-15T22:16:54.606Z,54.14
2023-02-15T22:18:56.571Z,54.03
2023-02-15T22:20:59.994Z,54.38
2023-02-15T22:23:02.316Z,53.96
2023-02-15T22:25:04.909Z,53.86
2023-02-15T22:27:08.017Z,54.26
2023-02-15T22:29:19.156Z,55.12
2023-02-15T22:31:23.048Z,55.32
2023-02-15T22:33:31.386Z,55.91
2023-02-15T22:35:36.164Z,55.45
2023-02-15T22:37:38.376Z,55.46
2023-02-15T22:39:40.899Z,55.70
2023-02-15T22:41:43.078Z,56.22
2023-02-15T22:43:46.507Z,56.03
2023-02-15T22:45:49.193Z,56.16
2023-02-15T22:47:56.542Z,56.08
2023-02-15T22:50:02.429Z,56.20
2023-02-15T22:52:06.647Z,56.36
2023-02-15T22:54:08.785Z,56.61
2023-02-15T22:56:18.739Z,56.53
2023-02-15T22:58:24.864Z,56.23
2023-02-15T23:00:30.742Z,55.79
2023-02-15T23:02:36.025Z,56.29
2023-02-15T23:04:38.219Z,55.76
2023-02-15T23:06:40.251Z,55.44
2023-02-15T23:08:42.596Z,55.22
2023-02-15T23:10:48.939Z,55.16
2023-02-15T23:13:15.521Z,54.95
2023-02-15T23:15:17.687Z,54.44
2023-02-15T23:17:20.618Z,54.60
2023-02-15T23:19:23.013Z,54.52
2023-02-15T23:21:30.690Z,54.66
2023-02-15T23:23:37.225Z,54.70
2023-02-15T23:25:39.680Z,54.93
2023-02-15T23:27:59.759Z,54.67
2023-02-15T23:30:04.141Z,54.60
2023-02-15T23:32:12.661Z,54.97
2023-02-15T23:34:17.941Z,55.14
2023-02-15T23:36:28.291Z,55.70
2023-02-15T23:38:31.434Z,55.58
2023-02-15T23:40:52.244Z,55.84
2023-02-15T23:42:54.502Z,55.78
2023-02-15T23:44:57.260Z,56.01
2023-02-15T23:46:59.834Z,55.86
2023-02-15T23:49:02.175Z,55.96
2023-02-15T23:51:10.995Z,56.92
2023-02-15T23:53:13.485Z,56.69
2023-02-15T23:55:15.601Z,56.87
2023-02-15T23:57:17.743Z,56.48
2023-02-15T23:59:24.613Z,57.00
